Time;durP1;ratioP1;P1;durP2;ratioP2;P2;SDS_P1;SDS_P2;PMS_P1;PMS_P2;Temp;Humidity;BMP_temperature;BMP_pressure;BME280_temperature;BME280_humidity;BME280_pressure;Samples;Min_cycle;Max_cycle;Signal;HPM_P1;HPM_P2
2023/09/29 00:00:06;;;;;;;13.23;7.60;;;;;;;16.64;100.00;101569.59;7373425;19;20491;-43
2023/09/29 00:02:35;;;;;;;15.53;9.60;;;;;;;16.68;100.00;101567.16;7394130;19;20407;-44
2023/09/29 00:05:06;;;;;;;11.53;6.87;;;;;;;16.65;100.00;101566.16;7369980;19;20458;-42
2023/09/29 00:07:37;;;;;;;21.30;7.83;;;;;;;16.60;100.00;101576.44;7394425;19;20420;-42
2023/09/29 00:10:11;;;;;;;16.87;7.80;;;;;;;16.64;100.00;101574.81;7373104;19;20427;-42
2023/09/29 00:12:41;;;;;;;12.67;6.80;;;;;;;16.60;100.00;101569.53;7392849;19;20383;-45
2023/09/29 00:15:12;;;;;;;12.47;7.30;;;;;;;16.61;100.00;101573.00;7365053;19;20441;-43
2023/09/29 00:17:41;;;;;;;14.67;7.80;;;;;;;16.62;100.00;101572.19;7390479;19;20387;-43
2023/09/29 00:20:18;;;;;;;13.27;7.20;;;;;;;16.58;100.00;101570.31;7368998;19;20416;-43
2023/09/29 00:22:48;;;;;;;18.07;7.70;;;;;;;16.60;100.00;101569.53;7391230;19;20391;-42
2023/09/29 00:25:20;;;;;;;11.23;6.67;;;;;;;16.64;100.00;101567.88;7366738;19;21030;-44
2023/09/29 00:27:50;;;;;;;11.63;6.90;;;;;;;16.68;100.00;101561.03;7392536;19;20408;-42
2023/09/29 00:30:20;;;;;;;14.30;7.10;;;;;;;16.67;100.00;101565.34;7369086;19;20407;-42
2023/09/29 00:32:50;;;;;;;25.90;8.07;;;;;;;16.65;100.00;101567.03;7390208;19;20396;-41
2023/09/29 00:35:24;;;;;;;11.83;7.10;;;;;;;16.68;100.00;101561.03;7367364;19;21034;-42
2023/09/29 00:37:54;;;;;;;10.63;6.77;;;;;;;16.71;100.00;101566.31;7390893;19;20734;-44
2023/09/29 00:40:27;;;;;;;15.37;7.20;;;;;;;16.67;100.00;101561.88;7368529;19;20403;-47
2023/09/29 00:42:57;;;;;;;9.40;6.17;;;;;;;16.65;100.00;101561.84;7391689;19;20387;-43
2023/09/29 00:45:28;;;;;;;10.67;6.60;;;;;;;16.65;100.00;101558.34;7369930;19;20535;-43
2023/09/29 00:47:59;;;;;;;13.50;7.07;;;;;;;16.65;100.00;101558.34;7394393;19;20478;-43
2023/09/29 00:50:29;;;;;;;11.63;7.03;;;;;;;16.60;100.00;101564.31;7371522;19;20466;-43
2023/09/29 00:53:06;;;;;;;15.60;10.60;;;;;;;16.60;100.00;101559.09;7390931;19;20399;-42
2023/09/29 00:55:41;;;;;;;15.93;8.10;;;;;;;16.63;100.00;101555.72;7364694;19;20451;-43
2023/09/29 00:58:09;;;;;;;16.80;10.40;;;;;;;16.61;100.00;101552.16;7389492;19;20753;-43
2023/09/29 01:00:40;;;;;;;12.53;7.90;;;;;;;16.59;100.00;101541.72;7368877;19;20411;-45
2023/09/29 01:03:13;;;;;;;15.00;6.90;;;;;;;16.58;100.00;101541.66;7392615;19;20387;-43
2023/09/29 01:05:46;;;;;;;12.77;7.53;;;;;;;16.58;100.00;101539.94;7365841;19;20451;-43
2023/09/29 01:08:19;;;;;;;13.67;7.33;;;;;;;16.60;100.00;101537.38;7370928;19;20775;-44
2023/09/29 01:10:52;;;;;;;16.03;9.20;;;;;;;16.58;100.00;101534.75;7372447;19;20973;-43
2023/09/29 01:13:22;;;;;;;15.63;7.97;;;;;;;16.56;100.00;101541.59;7385581;19;20387;-43
2023/09/29 01:15:54;;;;;;;18.20;7.97;;;;;;;16.54;100.00;101538.06;7394162;19;20467;-46
2023/09/29 01:18:24;;;;;;;15.17;7.60;;;;;;;16.52;100.00;101544.06;7367755;19;20416;-42
2023/09/29 01:20:54;;;;;;;12.27;7.23;;;;;;;16.53;100.00;101546.75;7389893;19;20391;-44
2023/09/29 01:23:24;;;;;;;11.27;6.83;;;;;;;16.54;100.00;101543.28;7377763;19;20392;-43
2023/09/29 01:25:56;;;;;;;16.60;8.47;;;;;;;16.52;100.00;101554.50;7389820;19;20419;-43
2023/09/29 01:28:26;;;;;;;12.07;6.83;;;;;;;16.51;100.00;101556.22;7366866;19;20392;-42
2023/09/29 01:30:55;;;;;;;14.43;7.77;;;;;;;16.53;100.00;101559.75;7389741;19;20387;-44
2023/09/29 01:33:25;;;;;;;13.70;7.47;;;;;;;16.55;100.00;101550.25;7367408;19;20384;-42
2023/09/29 01:35:55;;;;;;;12.70;7.30;;;;;;;16.54;100.00;101548.50;7387698;19;20445;-42
2023/09/29 01:38:25;;;;;;;11.40;6.67;;;;;;;16.56;100.00;101562.44;7366607;19;20392;-42
2023/09/29 01:40:57;;;;;;;14.23;6.87;;;;;;;16.56;100.00;101549.41;7387777;19;20394;-44
2023/09/29 01:43:27;;;;;;;13.90;7.50;;;;;;;16.56;100.00;101549.41;7368038;19;20387;-43
2023/09/29 01:45:57;;;;;;;11.90;6.53;;;;;;;16.56;100.00;101549.41;7386753;19;20802;-42
2023/09/29 01:48:26;;;;;;;13.33;7.07;;;;;;;16.54;100.00;101548.50;7365986;19;20919;-41
2023/09/29 01:50:56;;;;;;;10.53;7.07;;;;;;;16.51;100.00;101545.78;7388085;19;20407;-42
2023/09/29 01:53:30;;;;;;;10.27;6.30;;;;;;;16.49;100.00;101543.97;7371061;19;20404;-43
2023/09/29 01:56:02;;;;;;;8.53;6.43;;;;;;;16.47;100.00;101551.75;7388275;19;20463;-45
2023/09/29 01:58:33;;;;;;;11.70;7.40;;;;;;;16.48;100.00;101535.28;7359411;19;20419;-43
2023/09/29 02:01:02;;;;;;;13.30;7.10;;;;;;;16.47;100.00;101538.75;7392582;19;20412;-43
2023/09/29 02:03:32;;;;;;;12.97;7.60;;;;;;;16.47;100.00;101539.59;7368062;19;20403;-44
2023/09/29 02:06:05;;;;;;;12.67;7.73;;;;;;;16.48;100.00;101532.69;7397336;19;21042;-43
2023/09/29 02:08:35;;;;;;;13.70;7.30;;;;;;;16.49;100.00;101530.94;7374912;19;20407;-41
2023/09/29 02:11:08;;;;;;;14.27;8.50;;;;;;;16.44;100.00;101531.72;7397598;19;20411;-43
2023/09/29 02:13:38;;;;;;;13.97;6.90;;;;;;;16.44;100.00;101525.59;7372881;19;20403;-45
2023/09/29 02:16:15;;;;;;;10.67;7.33;;;;;;;16.54;100.00;101514.63;7396924;19;20435;-44
2023/09/29 02:18:46;;;;;;;13.50;7.90;;;;;;;16.62;100.00;101509.66;7375359;19;20427;-42
2023/09/29 02:21:22;;;;;;;18.73;11.57;;;;;;;16.59;100.00;101505.25;7395775;19;20403;-46
2023/09/29 02:23:51;;;;;;;19.10;12.33;;;;;;;16.76;100.00;101501.34;7376762;19;20478;-44
2023/09/29 02:26:25;;;;;;;20.07;10.50;;;;;;;16.77;100.00;101501.38;7398256;19;20407;-43
2023/09/29 02:28:54;;;;;;;21.60;13.60;;;;;;;16.81;100.00;101502.38;7377502;19;20490;-44
2023/09/29 02:31:26;;;;;;;21.57;11.57;;;;;;;16.80;100.00;101504.06;7396091;19;20412;-43
2023/09/29 02:33:57;;;;;;;17.30;8.80;;;;;;;16.80;100.00;101519.72;7374488;19;20400;-41
2023/09/29 02:36:26;;;;;;;19.70;11.00;;;;;;;16.87;100.00;101506.00;7394806;19;20451;-43
2023/09/29 02:38:56;;;;;;;19.60;9.97;;;;;;;16.83;100.00;101509.34;7375673;19;20812;-45
2023/09/29 02:41:29;;;;;;;15.90;9.20;;;;;;;16.90;100.00;101514.75;7395522;19;20785;-42
2023/09/29 02:43:59;;;;;;;15.53;9.43;;;;;;;16.79;100.00;101528.38;7376031;19;20434;-45
2023/09/29 02:46:29;;;;;;;18.70;8.20;;;;;;;16.82;100.00;101528.44;7395776;19;20407;-44
2023/09/29 02:48:59;;;;;;;15.00;7.60;;;;;;;16.85;100.00;101527.66;7375196;19;20423;-43
2023/09/29 02:51:28;;;;;;;13.40;7.80;;;;;;;16.80;100.00;101524.91;7397911;19;20478;-44
2023/09/29 02:53:59;;;;;;;14.67;8.27;;;;;;;16.67;100.00;101526.28;7374381;19;20430;-42
2023/09/29 02:56:32;;;;;;;14.67;8.03;;;;;;;16.67;100.00;101521.06;7395945;19;20410;-44
2023/09/29 02:59:04;;;;;;;13.33;7.97;;;;;;;16.70;100.00;101522.88;7374890;19;20417;-43
2023/09/29 03:01:34;;;;;;;12.67;7.93;;;;;;;16.56;100.00;101523.38;7397071;19;20756;-44
2023/09/29 03:04:07;;;;;;;14.30;8.10;;;;;;;16.46;100.00;101521.34;7373871;19;20526;-42
2023/09/29 03:06:37;;;;;;;12.00;8.20;;;;;;;16.40;100.00;101518.56;7395738;19;20396;-44
2023/09/29 03:09:07;;;;;;;13.83;8.23;;;;;;;16.31;100.00;101509.63;7375042;19;20486;-44
2023/09/29 03:11:40;;;;;;;18.90;8.43;;;;;;;16.37;100.00;101500.22;7395533;19;20412;-43
2023/09/29 03:14:09;;;;;;;14.10;8.40;;;;;;;16.42;100.00;101485.63;7370760;19;20427;-43
2023/09/29 03:16:39;;;;;;;15.13;7.70;;;;;;;16.41;100.00;101481.28;7396425;19;20420;-46
2023/09/29 03:19:09;;;;;;;14.63;8.13;;;;;;;16.38;100.00;101486.38;7374926;19;20411;-46
2023/09/29 03:21:39;;;;;;;11.40;8.23;;;;;;;16.51;100.00;101480.69;7397439;19;20479;-44
2023/09/29 03:24:10;;;;;;;15.23;8.87;;;;;;;16.36;100.00;101485.44;7364596;19;20478;-43
2023/09/29 03:26:42;;;;;;;14.20;8.30;;;;;;;16.27;100.00;101481.75;7381824;19;20415;-42
2023/09/29 03:29:12;;;;;;;17.67;9.10;;;;;;;16.35;100.00;101475.88;7364988;19;20444;-44
2023/09/29 03:31:41;;;;;;;12.53;7.97;;;;;;;16.43;100.00;101464.84;7386003;19;20708;-44
2023/09/29 03:34:11;;;;;;;13.13;8.67;;;;;;;16.39;100.00;101455.16;7363988;19;20495;-45
2023/09/29 03:36:41;;;;;;;13.63;8.73;;;;;;;16.36;100.00;101460.28;7385313;19;20407;-43
2023/09/29 03:39:11;;;;;;;12.80;9.13;;;;;;;16.38;100.00;101452.50;7366703;19;20447;-44
2023/09/29 03:41:43;;;;;;;13.87;9.37;;;;;;;16.27;100.00;101460.03;7386521;19;20412;-43
2023/09/29 03:44:13;;;;;;;14.83;8.93;;;;;;;16.18;100.00;101458.03;7364838;19;20518;-45
2023/09/29 03:46:44;;;;;;;14.80;8.70;;;;;;;16.22;100.00;101453.78;7387052;19;20399;-42
2023/09/29 03:49:14;;;;;;;14.40;9.10;;;;;;;16.23;100.00;101452.94;7366570;19;20443;-42
2023/09/29 03:51:44;;;;;;;18.20;8.67;;;;;;;16.18;100.00;101451.13;7386699;19;20411;-44
2023/09/29 03:54:13;;;;;;;14.27;9.60;;;;;;;16.22;100.00;101444.28;7365191;19;20459;-43
2023/09/29 03:56:45;;;;;;;18.63;9.57;;;;;;;16.19;100.00;101437.25;7394736;19;20419;-45
2023/09/29 03:59:15;;;;;;;12.37;9.13;;;;;;;16.17;100.00;101440.66;7371263;19;20774;-45
2023/09/29 04:01:45;;;;;;;16.30;9.50;;;;;;;16.08;100.00;101445.56;7395086;19;20495;-44
2023/09/29 04:04:14;;;;;;;12.87;9.20;;;;;;;15.98;100.00;101441.81;7371581;19;20463;-43
2023/09/29 04:06:44;;;;;;;18.03;10.10;;;;;;;15.93;100.00;101450.38;7393618;19;20411;-44
2023/09/29 04:09:14;;;;;;;19.30;9.50;;;;;;;15.90;100.00;101434.63;7372327;19;20444;-43
2023/09/29 04:11:49;;;;;;;64.13;32.53;;;;;;;15.90;100.00;101433.75;7395080;19;20404;-42
2023/09/29 04:14:19;;;;;;;27.77;15.97;;;;;;;15.93;100.00;101423.47;7368558;19;20549;-44
2023/09/29 04:17:04;;;;;;;18.93;11.70;;;;;;;15.99;100.00;101405.41;7394041;19;20805;-44
2023/09/29 04:19:35;;;;;;;42.00;24.57;;;;;;;16.14;100.00;101409.31;7371491;19;20487;-44
2023/09/29 04:22:05;;;;;;;23.67;14.53;;;;;;;16.13;100.00;101402.34;7392344;19;20407;-42
2023/09/29 04:24:36;;;;;;;19.53;10.90;;;;;;;16.01;100.00;101405.47;7369206;19;20526;-44
2023/09/29 04:27:08;;;;;;;24.63;12.30;;;;;;;16.09;100.00;101397.91;7391760;19;20420;-41
2023/09/29 04:29:38;;;;;;;18.13;10.83;;;;;;;15.97;100.00;101404.50;7371369;19;20426;-43
2023/09/29 04:32:08;;;;;;;14.60;10.23;;;;;;;15.97;100.00;101403.59;7394654;19;20395;-43
2023/09/29 04:34:37;;;;;;;14.27;10.00;;;;;;;15.90;100.00;101402.53;7370218;19;20455;-44
2023/09/29 04:37:07;;;;;;;17.10;10.80;;;;;;;15.84;100.00;101402.34;7394002;19;20495;-44
2023/09/29 04:39:37;;;;;;;16.00;11.10;;;;;;;15.80;100.00;101406.56;7370391;19;20803;-41
2023/09/29 04:42:09;;;;;;;18.37;10.57;;;;;;;15.76;100.00;101395.19;7393970;19;20479;-42
2023/09/29 04:44:40;;;;;;;18.40;9.97;;;;;;;15.72;100.00;101395.94;7368446;19;20533;-43
2023/09/29 04:47:09;;;;;;;21.90;10.30;;;;;;;15.72;100.00;101398.53;7391670;19;20838;-44
2023/09/29 04:49:39;;;;;;;20.73;12.80;;;;;;;15.78;100.00;101385.72;7370077;19;20426;-44
2023/09/29 04:52:08;;;;;;;14.47;10.60;;;;;;;15.74;100.00;101390.78;7393591;19;20400;-43
2023/09/29 04:54:38;;;;;;;21.43;11.47;;;;;;;15.74;100.00;101389.03;7369119;19;20466;-42
2023/09/29 04:57:10;;;;;;;16.13;10.70;;;;;;;15.76;100.00;101383.88;7391797;19;20781;-45
2023/09/29 04:59:40;;;;;;;15.87;10.17;;;;;;;15.70;100.00;101389.81;7370374;19;20454;-42
2023/09/29 05:02:09;;;;;;;15.83;12.00;;;;;;;15.72;100.00;101388.13;7391097;19;20785;-45
2023/09/29 05:04:39;;;;;;;16.40;11.03;;;;;;;15.70;100.00;101374.19;7369049;19;21009;-44
2023/09/29 05:07:09;;;;;;;15.20;11.17;;;;;;;15.71;100.00;101375.97;7393283;19;20396;-44
2023/09/29 05:09:39;;;;;;;17.77;10.87;;;;;;;15.72;100.00;101371.63;7369944;19;20415;-45
2023/09/29 05:12:12;;;;;;;18.70;11.67;;;;;;;15.71;100.00;101372.47;7392776;19;20408;-44
2023/09/29 05:14:43;;;;;;;18.40;11.10;;;;;;;15.72;100.00;101377.72;7367650;19;20470;-43
2023/09/29 05:17:12;;;;;;;13.80;10.67;;;;;;;15.73;100.00;101376.88;7391111;19;20798;-43
2023/09/29 05:19:42;;;;;;;15.93;11.30;;;;;;;15.68;100.00;101365.44;7370391;19;20797;-43
2023/09/29 05:22:11;;;;;;;16.27;10.70;;;;;;;15.67;100.00;101374.09;7390154;19;20818;-45
2023/09/29 05:24:41;;;;;;;18.23;10.80;;;;;;;15.59;100.00;101373.84;7368097;19;21009;-45
2023/09/29 05:27:14;;;;;;;18.93;13.23;;;;;;;15.58;100.00;101377.28;7391653;19;20472;-43
2023/09/29 05:29:43;;;;;;;22.60;14.47;;;;;;;15.58;100.00;101374.69;7369493;19;20431;-43
2023/09/29 05:32:13;;;;;;;20.40;11.13;;;;;;;15.57;100.00;101374.63;7390635;19;20959;-43
2023/09/29 05:34:42;;;;;;;18.60;10.40;;;;;;;15.55;100.00;101373.72;7368114;19;20439;-43
2023/09/29 05:37:12;;;;;;;19.73;12.47;;;;;;;15.61;100.00;101363.50;7390605;19;20410;-42
2023/09/29 05:39:42;;;;;;;17.10;10.73;;;;;;;15.57;100.00;101366.81;7372475;19;20504;-46
2023/09/29 05:42:15;;;;;;;16.63;11.20;;;;;;;15.59;100.00;101363.44;7397573;19;20483;-42
2023/09/29 05:44:45;;;;;;;18.03;10.20;;;;;;;15.56;100.00;101359.88;7374412;19;20475;-43
2023/09/29 05:47:16;;;;;;;20.23;12.03;;;;;;;15.55;100.00;101365.91;7397421;19;20833;-43
2023/09/29 05:49:46;;;;;;;17.90;11.50;;;;;;;15.56;100.00;101359.88;7375971;19;20419;-45
2023/09/29 05:52:23;;;;;;;18.37;11.87;;;;;;;15.66;100.00;101361.91;7397972;19;20424;-44
2023/09/29 05:54:53;;;;;;;20.03;12.03;;;;;;;15.62;100.00;101362.66;7375199;19;20515;-45
2023/09/29 05:57:25;;;;;;;18.00;11.20;;;;;;;15.57;100.00;101359.03;7391621;19;20407;-54
2023/09/29 05:59:54;;;;;;;17.90;11.13;;;;;;;15.62;100.00;101357.44;7374394;19;20423;-53
2023/09/29 06:02:24;;;;;;;16.20;11.40;;;;;;;15.57;100.00;101361.63;7394386;19;20419;-55
2023/09/29 06:04:54;;;;;;;22.70;11.60;;;;;;;15.55;100.00;101363.31;7374757;19;20427;-56
2023/09/29 06:07:23;;;;;;;18.20;11.57;;;;;;;15.57;100.00;101359.91;7399340;19;20402;-51
2023/09/29 06:09:53;;;;;;;19.50;12.00;;;;;;;15.57;100.00;101359.03;7373913;19;20419;-53
2023/09/29 06:12:25;;;;;;;20.07;13.27;;;;;;;15.61;100.00;101358.28;7391576;19;20418;-52
2023/09/29 06:14:55;;;;;;;16.73;11.97;;;;;;;15.61;100.00;101351.38;7364867;19;20427;-53
2023/09/29 06:17:25;;;;;;;159.80;81.17;;;;;;;15.70;100.00;101352.50;7394136;19;20403;-51
2023/09/29 06:19:55;;;;;;;19.43;12.27;;;;;;;15.65;100.00;101352.34;7372610;19;20422;-53
2023/09/29 06:22:25;;;;;;;20.13;11.90;;;;;;;15.68;100.00;101361.97;7395667;19;20474;-50
2023/09/29 06:24:55;;;;;;;23.10;12.13;;;;;;;15.68;100.00;101362.84;7374645;19;20966;-53
2023/09/29 06:27:27;;;;;;;27.23;16.10;;;;;;;15.80;100.00;101362.34;7395127;19;20404;-53
2023/09/29 06:29:58;;;;;;;16.90;11.77;;;;;;;15.85;100.00;101367.69;7364817;19;20511;-54
2023/09/29 06:32:28;;;;;;;23.90;12.10;;;;;;;15.88;100.00;101367.75;7392697;19;20424;-56
2023/09/29 06:34:58;;;;;;;17.37;12.27;;;;;;;15.96;100.00;101360.22;7374866;19;20459;-52
2023/09/29 06:37:27;;;;;;;31.07;12.10;;;;;;;15.92;100.00;101369.66;7395489;19;20408;-52
2023/09/29 06:39:57;;;;;;;21.33;13.27;;;;;;;15.89;100.00;101375.63;7375353;19;20447;-51
2023/09/29 06:42:29;;;;;;;16.23;11.20;;;;;;;15.96;100.00;101361.09;7398388;19;20443;-52
2023/09/29 06:44:59;;;;;;;19.37;12.20;;;;;;;15.99;100.00;101371.59;7373890;19;20526;-51
2023/09/29 06:47:29;;;;;;;15.07;11.80;;;;;;;15.97;100.00;101378.47;7398254;19;20443;-52
2023/09/29 06:49:58;;;;;;;22.50;11.60;;;;;;;15.94;100.00;101388.78;7372391;19;20435;-52
2023/09/29 06:52:28;;;;;;;22.00;11.90;;;;;;;15.96;100.00;101388.84;7397038;19;20409;-52
2023/09/29 06:54:58;;;;;;;20.80;12.37;;;;;;;15.99;100.00;101383.75;7374435;19;20450;-51
2023/09/29 06:57:30;;;;;;;16.90;11.93;;;;;;;16.00;100.00;101380.28;7397025;19;20410;-51
2023/09/29 07:00:00;;;;;;;16.40;12.13;;;;;;;16.10;100.00;101381.44;7373975;19;20440;-53
2023/09/29 07:02:30;;;;;;;21.80;11.60;;;;;;;16.17;100.00;101370.38;7394902;19;20407;-53
2023/09/29 07:04:59;;;;;;;20.23;10.67;;;;;;;16.21;100.00;101367.03;7373618;19;20987;-56
2023/09/29 07:07:32;;;;;;;19.30;11.60;;;;;;;16.23;100.00;101380.06;7395898;19;20993;-52
2023/09/29 07:10:02;;;;;;;16.80;11.20;;;;;;;16.25;100.00;101388.81;7373597;19;20447;-54
2023/09/29 07:12:34;;;;;;;21.10;11.90;;;;;;;16.26;100.00;101388.84;7394524;19;20410;-52
2023/09/29 07:15:04;;;;;;;17.97;11.73;;;;;;;16.27;100.00;101394.94;7371565;19;21043;-50
2023/09/29 07:17:33;;;;;;;24.63;11.90;;;;;;;16.33;100.00;101392.50;7396831;19;20427;-53
2023/09/29 07:20:03;;;;;;;18.10;10.90;;;;;;;16.36;100.00;101396.91;7373339;19;20430;-51
2023/09/29 07:22:33;;;;;;;25.60;13.03;;;;;;;16.42;100.00;101386.69;7394923;19;20935;-50
2023/09/29 07:25:02;;;;;;;17.77;10.97;;;;;;;16.48;100.00;101386.84;7373135;19;20451;-53
2023/09/29 07:27:35;;;;;;;21.60;10.70;;;;;;;16.49;100.00;101400.72;7397063;19;20438;-54
2023/09/29 07:30:06;;;;;;;23.07;10.87;;;;;;;16.48;100.00;101412.88;7371387;19;20830;-49
2023/09/29 07:32:36;;;;;;;16.60;11.30;;;;;;;16.46;100.00;101422.38;7394635;19;20411;-49
2023/09/29 07:35:07;;;;;;;15.57;10.50;;;;;;;16.46;100.00;101432.81;7372548;19;20522;-54
2023/09/29 07:37:38;;;;;;;16.50;10.87;;;;;;;16.43;100.00;101445.72;7395382;19;20967;-54
2023/09/29 07:40:09;;;;;;;15.80;9.57;;;;;;;16.47;100.00;101451.06;7373652;19;20427;-51
2023/09/29 07:42:42;;;;;;;19.33;11.87;;;;;;;16.52;100.00;101461.63;7395027;19;20404;-53
2023/09/29 07:45:12;;;;;;;28.80;14.00;;;;;;;16.57;100.00;101448.72;7372466;19;20426;-53
2023/09/29 07:47:42;;;;;;;17.13;10.97;;;;;;;16.64;100.00;101439.34;7394320;19;21160;-50
2023/09/29 07:50:15;;;;;;;17.33;10.87;;;;;;;16.70;100.00;101434.31;7373563;19;20444;-52
2023/09/29 07:52:45;;;;;;;20.33;11.07;;;;;;;16.67;100.00;101440.31;7394794;19;20412;-50
2023/09/29 07:55:14;;;;;;;18.80;11.17;;;;;;;16.66;100.00;101435.94;7371713;19;20514;-53
2023/09/29 07:57:47;;;;;;;21.03;9.83;;;;;;;16.68;100.00;101442.09;7394262;19;20438;-55
2023/09/29 08:00:17;;;;;;;20.13;10.97;;;;;;;16.69;100.00;101437.75;7372468;19;20446;-55
2023/09/29 08:02:47;;;;;;;15.13;10.30;;;;;;;16.66;100.00;101440.28;7392574;19;20415;-50
2023/09/29 08:05:17;;;;;;;17.93;9.30;;;;;;;16.70;100.00;101442.13;7371681;19;20427;-53
2023/09/29 08:07:47;;;;;;;20.70;11.03;;;;;;;16.78;100.00;101417.19;7394306;19;20444;-55
2023/09/29 08:10:16;;;;;;;17.50;10.53;;;;;;;16.92;100.00;101395.81;7372089;19;20419;-55
2023/09/29 08:12:48;;;;;;;20.97;9.83;;;;;;;16.93;100.00;101406.28;7394298;19;20498;-52
2023/09/29 08:15:20;;;;;;;23.10;10.23;;;;;;;16.99;100.00;101434.22;7369902;19;20450;-53
2023/09/29 08:17:50;;;;;;;17.53;10.90;;;;;;;17.01;100.00;101435.13;7394013;19;20447;-50
2023/09/29 08:20:20;;;;;;;23.90;11.53;;;;;;;16.94;100.00;101448.84;7372467;19;20423;-55
2023/09/29 08:22:50;;;;;;;19.20;10.30;;;;;;;16.96;100.00;101457.56;7394289;19;20424;-49
2023/09/29 08:25:20;;;;;;;18.30;10.93;;;;;;;17.01;100.00;101466.41;7371088;19;21036;-53
2023/09/29 08:27:53;;;;;;;17.53;11.00;;;;;;;17.02;100.00;101478.63;7393811;19;20511;-55
2023/09/29 08:30:22;;;;;;;19.83;10.20;;;;;;;17.05;100.00;101483.94;7370810;19;20490;-55
2023/09/29 08:32:52;;;;;;;13.63;9.23;;;;;;;17.07;100.00;101492.66;7394019;19;20399;-55
2023/09/29 08:35:35;;;;;;;20.60;10.50;;;;;;;17.12;100.00;101496.28;7370823;19;20458;-52
2023/09/29 08:38:05;;;;;;;16.23;9.80;;;;;;;17.21;100.00;101506.06;7395539;19;20463;-51
2023/09/29 08:40:37;;;;;;;15.33;9.40;;;;;;;17.23;100.00;101520.03;7371017;19;20793;-54
2023/09/29 08:43:11;;;;;;;16.07;9.90;;;;;;;17.31;100.00;101533.25;7395804;19;20975;-55
2023/09/29 08:45:45;;;;;;;18.37;9.27;;;;;;;17.44;100.00;101549.22;7371744;19;20453;-58
2023/09/29 08:48:15;;;;;;;16.97;9.63;;;;;;;17.49;100.00;101571.13;7392728;19;20534;-54
2023/09/29 08:50:50;;;;;;;14.23;8.67;;;;;;;17.55;100.00;101585.19;7371266;19;20431;-54
2023/09/29 08:53:20;;;;;;;15.73;9.60;;;;;;;17.70;100.00;101586.44;7392859;19;20395;-56
2023/09/29 08:55:50;;;;;;;16.00;9.37;;;;;;;17.74;100.00;101596.09;7371601;19;20439;-52
2023/09/29 08:58:23;;;;;;;22.90;9.87;;;;;;;17.70;100.00;101603.81;7393489;19;20967;-53
2023/09/29 09:00:53;;;;;;;16.00;9.20;;;;;;;17.70;100.00;101602.09;7371708;19;20439;-56
2023/09/29 09:03:23;;;;;;;12.60;7.97;;;;;;;17.64;100.00;101614.97;7388294;19;20818;-54
2023/09/29 09:05:55;;;;;;;19.53;9.73;;;;;;;17.65;100.00;101616.75;7394522;19;20424;-54
2023/09/29 09:08:26;;;;;;;16.23;9.90;;;;;;;17.59;100.00;101617.44;7367348;19;20443;-55
2023/09/29 09:11:00;;;;;;;20.53;9.10;;;;;;;17.60;100.00;101619.25;7388808;19;20420;-52
2023/09/29 09:13:32;;;;;;;17.30;10.00;;;;;;;17.60;100.00;101621.84;7366651;19;20503;-54
2023/09/29 09:16:02;;;;;;;19.57;9.93;;;;;;;17.56;100.00;101627.81;7390497;19;20419;-56
2023/09/29 09:18:32;;;;;;;15.47;8.90;;;;;;;17.49;100.00;101625.91;7367205;19;21204;-55
2023/09/29 09:21:02;;;;;;;16.77;9.10;;;;;;;17.56;100.00;101627.81;7391942;19;20773;-55
2023/09/29 09:23:38;;;;;;;15.20;8.47;;;;;;;17.62;100.00;101617.53;7368228;19;20407;-57
2023/09/29 09:26:16;;;;;;;19.87;11.00;;;;;;;17.62;100.00;101586.22;7390753;19;22440;-54
2023/09/29 09:28:49;;;;;;;16.47;9.43;;;;;;;17.58;100.00;101555.69;7368341;19;20513;-56
2023/09/29 09:31:19;;;;;;;17.67;11.07;;;;;;;17.52;100.00;101543.38;7390753;19;21074;-54
2023/09/29 09:33:51;;;;;;;22.30;11.73;;;;;;;17.48;100.00;101530.22;7370133;19;20395;-53
2023/09/29 09:36:20;;;;;;;11.70;8.80;;;;;;;17.55;100.00;101512.13;7390259;19;20790;-55
2023/09/29 09:38:50;;;;;;;23.43;10.70;;;;;;;17.56;100.00;101502.59;7369897;19;20402;-56
2023/09/29 09:41:20;;;;;;;17.37;9.70;;;;;;;17.60;100.00;101490.50;7389833;19;20482;-53
2023/09/29 09:43:52;;;;;;;15.20;8.50;;;;;;;17.70;100.00;101484.69;7369929;19;20502;-51
2023/09/29 09:46:22;;;;;;;11.90;7.57;;;;;;;17.77;100.00;101490.91;7391920;19;20407;-57
2023/09/29 09:48:56;;;;;;;16.43;7.87;;;;;;;17.84;100.00;101498.03;7368229;19;20419;-56
2023/09/29 09:51:34;;;;;;;11.57;8.00;;;;;;;17.83;100.00;101496.25;7387779;19;20944;-54
2023/09/29 09:54:08;;;;;;;14.40;7.63;;;;;;;17.85;100.00;101514.59;7367072;19;20470;-56
2023/09/29 09:56:46;;;;;;;13.67;8.33;;;;;;;17.78;100.00;101539.63;7386923;19;20405;-55
2023/09/29 09:59:18;;;;;;;11.00;6.70;;;;;;;17.80;100.00;101559.72;7366905;19;20462;-56
2023/09/29 10:01:48;;;;;;;13.70;7.50;;;;;;;17.82;100.00;101572.81;7392863;19;20414;-53
2023/09/29 10:04:18;;;;;;;14.23;6.50;;;;;;;17.87;100.00;101570.31;7367633;19;20423;-55
2023/09/29 10:06:51;;;;;;;21.53;11.57;;;;;;;18.00;100.00;101567.13;7390815;19;20419;-56
2023/09/29 10:09:21;;;;;;;15.17;6.20;;;;;;;18.00;100.00;101566.28;7368039;19;20844;-55
2023/09/29 10:12:00;;;;;;;11.43;6.50;;;;;;;18.09;100.00;101566.50;7393381;19;20499;-57
2023/09/29 10:14:32;;;;;;;11.60;6.43;;;;;;;18.13;100.00;101568.34;7366510;19;20502;-54
2023/09/29 10:17:05;;;;;;;10.40;5.90;;;;;;;18.27;100.00;101554.72;7391119;19;20407;-58
2023/09/29 10:19:38;;;;;;;13.17;6.50;;;;;;;18.30;100.00;101557.44;7367426;19;20506;-53
2023/09/29 10:22:09;;;;;;;10.00;6.30;;;;;;;18.31;100.00;101546.13;7390434;19;20502;-56
2023/09/29 10:24:38;;;;;;;13.90;8.17;;;;;;;18.40;100.00;101543.69;7368293;19;20455;-56
2023/09/29 10:27:11;;;;;;;16.93;6.30;;;;;;;18.52;100.00;101550.03;7396106;19;20486;-55
2023/09/29 10:29:49;;;;;;;16.30;7.00;;;;;;;18.52;100.00;101539.59;7373172;19;20457;-56
2023/09/29 10:32:22;;;;;;;13.37;7.00;;;;;;;18.53;100.00;101546.56;7396964;19;20403;-53
2023/09/29 10:35:05;;;;;;;10.70;6.37;;;;;;;18.49;100.00;101546.53;7372913;19;20439;-54
2023/09/29 10:37:41;;;;;;;17.23;7.63;;;;;;;18.64;100.00;101542.47;7396895;19;20587;-55
2023/09/29 10:40:22;;;;;;;16.53;9.43;;;;;;;18.86;100.00;101545.50;7373720;19;20537;-54
2023/09/29 10:42:54;;;;;;;27.23;11.00;;;;;;;18.98;100.00;101529.19;7393446;19;20424;-58
2023/09/29 10:45:36;;;;;;;13.07;7.07;;;;;;;18.96;100.00;101505.63;7371466;19;20435;-58
2023/09/29 10:48:11;;;;;;;13.23;8.10;;;;;;;19.28;100.00;101481.81;7394830;19;20452;-58
2023/09/29 10:50:44;;;;;;;13.87;7.57;;;;;;;19.35;100.00;101459.28;7373596;19;20537;-59
2023/09/29 10:53:14;;;;;;;10.40;5.40;;;;;;;19.46;100.00;101442.84;7397826;19;20411;-58
2023/09/29 10:55:46;;;;;;;9.33;5.57;;;;;;;19.61;100.00;101432.63;7374782;19;20748;-57
2023/09/29 10:58:19;;;;;;;12.77;5.07;;;;;;;19.64;100.00;101406.50;7397222;19;20778;-58
2023/09/29 11:00:53;;;;;;;10.07;4.80;;;;;;;19.93;100.00;101365.84;7375522;19;21022;-57
2023/09/29 11:03:24;;;;;;;9.43;5.20;;;;;;;19.87;100.00;101329.13;7395169;19;20773;-55
2023/09/29 11:05:57;;;;;;;13.53;6.67;;;;;;;19.88;100.00;101305.59;7389237;19;20410;-59
2023/09/29 11:08:31;;;;;;;10.23;5.20;;;;;;;19.93;100.00;101271.59;7374055;19;20432;-57
2023/09/29 11:11:02;;;;;;;8.07;4.53;;;;;;;19.98;100.00;101293.50;7395484;19;20403;-58
2023/09/29 11:13:33;;;;;;;11.93;5.80;;;;;;;20.03;100.00;101289.22;7370038;19;20392;-58
2023/09/29 11:16:05;;;;;;;20.10;10.67;;;;;;;19.96;100.00;101258.59;7396544;19;20408;-58
2023/09/29 11:18:37;;;;;;;14.33;7.20;;;;;;;19.85;100.00;101263.69;7373014;19;20458;-56
2023/09/29 11:21:11;;;;;;;9.00;4.27;;;;;;;19.86;100.00;101257.56;7394775;19;20415;-56
2023/09/29 11:23:44;;;;;;;23.17;12.87;;;;;;;19.86;100.00;101244.47;7373082;19;20403;-58